Burns, TN (37029)

3:33 PM CST on February 14, 2016 (GMT -0600)
Tidwell Weather Station-- Intersection Hwy 47 and Hwy 96, Burns/Dickson | | Change Station
CLOSE
Current Station
Personal Weather Station
Location: Burns, TN
Elevation: 783 ft
Nearby Weather Stations

Elev 783 ft 36.05 °N, 87.30 °W | Updated 2 seconds ago

Overcast
Overcast
33.6 °F
Feels Like 31 °F
N
3.5
Wind Variable Wind from ESE
Gusts 4.4 mph

Today
High -- | Low -- °F
--% Chance of Precip.
Yesterday
High -- | Low -- °F
Precip. -- in
Pressure 30.09 in
Visibility 10.0 miles
Clouds Overcast 4200 ft
Windchill 31 °F
Dew Point 19 °F
Humidity 55%
Rainfall 0.00 in
Snow Depth Not available.
6:37 AM 5:28 PM
Waxing Crescent, 45% visible
METAR KBNA 142053Z 14008KT 10SM OVC042 01/M08 A3007 RMK AO2 SLP187 60002 T00061083 56059
Pressure 30.09 in
Visibility 10.0 miles
Clouds Overcast 4200 ft
Windchill 31 °F
Dew Point 19 °F
Humidity 55%
Rainfall 0.00 in
Snow Depth Not available.
6:37 AM 5:28 PM
Waxing Crescent, 45% visible
METAR KBNA 142053Z 14008KT 10SM OVC042 01/M08 A3007 RMK AO2 SLP187 60002 T00061083 56059

10-Day Weather Forecast

Almanac

Astronomy

Feb. 14, 2016 Rise Set
Actual Time
Civil Twilight
Nautical Twilight
Astronomical Twilight
Moon
Length of Visible Light
Length of Day
Tomorrow will be .
, % of the Moon is Illuminated

Today's Extremes

State Highs State Lows

Community

WunderPhotos

Upload Photos

1,892,890 photos uploaded!

WunderBlog® & News

Nearby

Air Quality

  Air Quality AQ Index Pollutant
Not available.

Snow Depth

Station Depth Elevation

Earthquake Activity

City Distance Mag. Time & Date
Minimum magnitude displayed is 2.5.

Coastal Water Temperatures

Place Temperature

Stations

Nearby Weather Stations

Station Location Temp. Windchill Dew Point Humidity Wind Precip. Elev Updated Type
                   

Watches & Warnings

There are currently no watches in effect.